Airfield :
LOGIN :

Register | Disclaimer

   EN    FR    IT 

 










Legend :    VFR   Marginal VFR   IFR   Intensive IFR   Very Intensive IFR
Visi :
Ceiling :
>= 8 km
>= 3000ft
5 to 8 km
1000 to 3000 ft
1500m to 5 km
500 to 1000 ft
800 to 1500m
200 to 500 ft
< 800m
< 200 ft
Symbols :   Thunderstorms  Fog  Heavy snow  Heavy precipitations  Wind > 20 kt
SIGMETs :     Misc.  Thunderstorms  Icing  Turbulence  Mountain Waves  Volcanic Ashes






- Airport Elevation : 267 ft


EGDR - Culdrose Navy

CURRENT METAR :
  • 241022Z 06007KT 8000 HZ OVC009 06/05 Q1023 TEMPO 3000 BR FEW005 SCT008 RMK GRN TEMPO YLO1

EXPIRED METARs :
  • 240950Z 06007KT 8000 HZ OVC009 05/04 Q1023 TEMPO 5000 BR FEW005 SCT008 RMK GRN TEMPO YLO1
  • 240925Z 04008KT 8000 BR OVC008 05/04 Q1023 TEMPO 5000 BR FEW005 SCT008 RMK GRN TEMPO YLO1
  • 240850Z 03010KT 8000 BR OVC007 05/04 Q1023 TEMPO 5000 BR FEW005 SCT008 RMK GRN TEMPO YLO1
  • 240825Z 02008KT 6000 BR OVC007 05/04 Q1023 TEMPO 5000 BR FEW005 SCT008 RMK GRN TEMPO YLO1
  • 240750Z 06008KT 5000 BR FEW005 OVC007 05/04 Q1023 GRN TEMPO 5000 BR FEW005 SCT008 RMK GRN TEMPO YLO1

TAF TAF EGDR
Valid from the 24 at 09:00 until the 24 at 18:00 UTC


240740Z 2409/2418 03007KT 9999 SCT008 OVC014
TEMPO 2409/2418 3000 -DZ SCT005
PROB30
TEMPO 2409/2418 2000 DZ SCT003



MET'MAP, your aeronautical weather chart ! - Copyright ORBIFLY December 2007 - Disclaimer

ORBIFLY MET'MAP TEAM :

Programming & Development : Alexandra Zaïnal
Concept & original design : Baudouin d'Aumeries
Assistance for programming : Marc-Olivier Méhu
Technical & hardware support : Manuel Goepfert

Contact : metmap@orbifly.com




SOURCES & CREDITS :

   NOAA